Airfield :
LOGIN :

Register | Disclaimer

   EN    FR    IT 

 










Legend :    VFR   Marginal VFR   IFR   Intensive IFR   Very Intensive IFR
Visi :
Ceiling :
>= 8 km
>= 3000ft
5 to 8 km
1000 to 3000 ft
1500m to 5 km
500 to 1000 ft
800 to 1500m
200 to 500 ft
< 800m
< 200 ft
Symbols :   Thunderstorms  Fog  Heavy snow  Heavy precipitations  Wind > 20 kt
SIGMETs :     Misc.  Thunderstorms  Icing  Turbulence  Mountain Waves  Volcanic Ashes







- Airport Elevation : 359 ft
- IATA code : BVA
- Download approach charts


LFOB - Beauvais

CURRENT METAR :
  • 222200Z AUTO 03005KT 340V050 CAVOK 10/07 Q1030 NOSIG

EXPIRED METARs :
  • 222130Z AUTO 03006KT CAVOK 10/07 Q1030 NOSIG
  • 222100Z AUTO 02005KT CAVOK 11/07 Q1029 NOSIG
  • 222030Z AUTO 03005KT CAVOK 12/08 Q1029 NOSIG
  • 222000Z AUTO 03005KT 320V090 CAVOK 13/08 Q1029 NOSIG
  • 221930Z AUTO 02006KT CAVOK 15/08 Q1029 NOSIG

TAF TAF LFOB
Valid from the 22 at 18:00 until the 23 at 18:00 UTC


221700Z 2218/2318 34012KT CAVOK
BECMG 2218/2221 VRB02KT
ATIS : +33 3 44 11 49 28
No reported NOTAMs for that airfield.



MET'MAP, your aeronautical weather chart ! - Copyright ORBIFLY December 2007 - Disclaimer

ORBIFLY MET'MAP TEAM :

Programming & Development : Alexandra Zaïnal
Concept & Development : Baudouin d'Aumeries
Co-Development & Prog : Marc-Olivier Méhu
Technical & hardware support : Manuel Goepfert

Contact : metmap@orbifly.com




SOURCES & CREDITS :

   NOAA